createdAt,value
2023-08-16T00:01:00.462Z,22.96
2023-08-16T00:03:37.757Z,22.92
2023-08-16T00:06:13.092Z,22.88
2023-08-16T00:08:42.050Z,22.83
2023-08-16T00:11:10.695Z,22.80
2023-08-16T00:13:39.161Z,22.77
2023-08-16T00:16:07.753Z,22.74
2023-08-16T00:18:36.220Z,22.71
2023-08-16T00:21:04.646Z,22.67
2023-08-16T00:23:33.260Z,22.63
2023-08-16T00:26:01.587Z,22.60
2023-08-16T00:28:29.959Z,22.57
2023-08-16T00:30:58.633Z,22.54
2023-08-16T00:33:27.044Z,22.50
2023-08-16T00:35:55.384Z,22.48
2023-08-16T00:38:24.015Z,22.45
2023-08-16T00:40:52.693Z,22.42
2023-08-16T00:43:21.120Z,22.37
2023-08-16T00:45:50.421Z,22.31
2023-08-16T00:48:19.248Z,22.28
2023-08-16T00:50:48.126Z,22.24
2023-08-16T00:53:19.189Z,22.21
2023-08-16T00:55:47.827Z,22.19
2023-08-16T00:58:16.423Z,22.14
2023-08-16T01:00:44.882Z,22.09
2023-08-16T01:03:13.391Z,22.04
2023-08-16T01:05:42.087Z,22.00
2023-08-16T01:08:10.650Z,21.95
2023-08-16T01:10:43.527Z,21.90
2023-08-16T01:13:14.814Z,21.86
2023-08-16T01:15:45.436Z,21.81
2023-08-16T01:18:15.361Z,21.75
2023-08-16T01:20:44.790Z,21.70
2023-08-16T01:23:19.623Z,21.64
2023-08-16T01:25:51.011Z,21.59
2023-08-16T01:28:20.169Z,21.54
2023-08-16T01:30:48.940Z,21.48
2023-08-16T01:33:17.302Z,21.41
2023-08-16T01:35:45.956Z,21.33
2023-08-16T01:38:14.716Z,21.26
2023-08-16T01:40:50.252Z,21.20
2023-08-16T01:43:18.807Z,21.15
2023-08-16T01:45:48.989Z,21.11
2023-08-16T01:48:17.805Z,21.05
2023-08-16T01:50:46.515Z,21.00
2023-08-16T01:53:15.106Z,20.95
2023-08-16T01:55:43.421Z,20.91
2023-08-16T01:58:11.883Z,20.86
2023-08-16T02:00:40.180Z,20.81
2023-08-16T02:03:08.540Z,20.77
2023-08-16T02:05:37.267Z,20.73
2023-08-16T02:08:06.199Z,20.67
2023-08-16T02:10:34.630Z,20.64
2023-08-16T02:13:03.305Z,20.61
2023-08-16T02:15:31.816Z,20.57
2023-08-16T02:18:00.337Z,20.52
2023-08-16T02:20:28.787Z,20.50
2023-08-16T02:22:57.272Z,20.48
2023-08-16T02:25:25.635Z,20.48
2023-08-16T02:27:54.171Z,20.44
2023-08-16T02:30:22.764Z,20.42
2023-08-16T02:32:51.073Z,20.41
2023-08-16T02:35:19.728Z,20.40
2023-08-16T02:37:48.089Z,20.39
2023-08-16T02:40:17.189Z,20.38
2023-08-16T02:42:47.248Z,20.38
2023-08-16T02:45:15.667Z,20.38
2023-08-16T02:47:44.114Z,20.37
2023-08-16T02:50:12.846Z,20.35
2023-08-16T02:52:41.142Z,20.33
2023-08-16T02:55:10.187Z,20.32
2023-08-16T02:57:38.700Z,20.29
2023-08-16T03:00:10.977Z,20.27
2023-08-16T03:02:39.805Z,20.26
2023-08-16T03:05:10.086Z,20.25
2023-08-16T03:07:39.673Z,20.24
2023-08-16T03:10:10.192Z,20.23
2023-08-16T03:12:38.608Z,20.22
2023-08-16T03:15:09.241Z,20.21
2023-08-16T03:17:37.652Z,20.22
2023-08-16T03:20:10.221Z,20.22
2023-08-16T03:22:38.650Z,20.23
2023-08-16T03:25:08.989Z,20.24
2023-08-16T03:27:37.544Z,20.23
2023-08-16T03:30:07.936Z,20.22
2023-08-16T03:32:36.299Z,20.18
2023-08-16T03:35:05.898Z,20.15
2023-08-16T03:37:34.298Z,20.11
2023-08-16T03:40:03.124Z,20.07
2023-08-16T03:42:31.507Z,20.04
2023-08-16T03:44:59.853Z,20.01
2023-08-16T03:47:30.292Z,19.98
2023-08-16T03:50:00.173Z,19.95
2023-08-16T03:52:28.481Z,19.94
2023-08-16T03:54:56.904Z,19.94
2023-08-16T03:57:25.750Z,19.93
2023-08-16T03:59:54.445Z,19.92
2023-08-16T04:02:22.932Z,19.92
2023-08-16T04:04:53.491Z,19.90
2023-08-16T04:07:22.529Z,19.89
2023-08-16T04:09:51.590Z,19.88
2023-08-16T04:12:20.304Z,19.87
2023-08-16T04:14:48.669Z,19.85
2023-08-16T04:17:17.292Z,19.83
2023-08-16T04:19:45.654Z,19.81
2023-08-16T04:22:13.969Z,19.80
2023-08-16T04:24:42.621Z,19.80
2023-08-16T04:27:11.029Z,19.81
2023-08-16T04:29:39.550Z,19.82
2023-08-16T04:32:08.378Z,19.82
2023-08-16T04:34:36.810Z,19.81
2023-08-16T04:37:05.363Z,19.79
2023-08-16T04:39:33.848Z,19.77
2023-08-16T04:42:02.189Z,19.76
2023-08-16T04:44:30.538Z,19.78
2023-08-16T04:46:58.861Z,19.82
2023-08-16T04:49:28.804Z,19.86
2023-08-16T04:51:57.624Z,19.91
2023-08-16T04:54:26.307Z,19.95
2023-08-16T04:56:54.764Z,20.00
2023-08-16T04:59:23.143Z,20.07
2023-08-16T05:01:51.544Z,20.14
2023-08-16T05:04:19.839Z,20.21
2023-08-16T05:06:48.159Z,20.28
2023-08-16T05:09:16.836Z,20.34
2023-08-16T05:11:45.217Z,20.42
2023-08-16T05:14:13.544Z,20.49
2023-08-16T05:16:42.031Z,20.56
2023-08-16T05:19:10.508Z,20.64
2023-08-16T05:21:38.942Z,20.73
2023-08-16T05:24:09.008Z,20.81
2023-08-16T05:26:37.472Z,20.89
2023-08-16T05:29:05.962Z,20.96
2023-08-16T05:31:34.274Z,21.03
2023-08-16T05:34:02.664Z,21.11
2023-08-16T05:36:31.018Z,21.18
2023-08-16T05:38:59.597Z,21.25
2023-08-16T05:41:29.523Z,21.32
2023-08-16T05:43:57.944Z,21.39
2023-08-16T05:46:26.273Z,21.47
2023-08-16T05:48:54.582Z,21.55
2023-08-16T05:51:22.936Z,21.62
2023-08-16T05:53:51.240Z,21.72
2023-08-16T05:56:19.704Z,21.81
2023-08-16T05:58:48.018Z,21.89
2023-08-16T06:01:16.561Z,21.96
2023-08-16T06:03:45.070Z,22.05
2023-08-16T06:06:13.530Z,22.15
2023-08-16T06:08:42.133Z,22.24
2023-08-16T06:11:11.047Z,22.33
2023-08-16T06:13:39.376Z,22.43
2023-08-16T06:16:08.052Z,22.52
2023-08-16T06:18:36.348Z,22.61
2023-08-16T06:21:04.711Z,22.71
2023-08-16T06:23:33.162Z,22.81
2023-08-16T06:26:01.458Z,22.90
2023-08-16T06:28:30.748Z,23.00
2023-08-16T06:30:59.133Z,23.10
2023-08-16T06:33:28.436Z,23.19
2023-08-16T06:35:56.802Z,23.28
2023-08-16T06:38:25.132Z,23.38
2023-08-16T06:40:53.769Z,23.47
2023-08-16T06:43:22.215Z,23.57
2023-08-16T06:45:51.043Z,23.66
2023-08-16T06:48:19.320Z,23.76
2023-08-16T06:50:47.759Z,23.85
2023-08-16T06:53:16.448Z,23.95
2023-08-16T06:55:44.817Z,24.06
2023-08-16T06:58:13.169Z,24.14
2023-08-16T07:00:45.035Z,24.22
2023-08-16T07:03:13.518Z,24.31
2023-08-16T07:05:42.185Z,24.41
2023-08-16T07:08:10.635Z,24.49
2023-08-16T07:10:39.025Z,24.58
2023-08-16T07:13:07.664Z,24.67
2023-08-16T07:15:36.074Z,24.77
2023-08-16T07:18:06.252Z,24.87
2023-08-16T07:20:34.974Z,24.98
2023-08-16T07:23:05.981Z,25.09
2023-08-16T07:25:35.479Z,25.20
2023-08-16T07:28:05.306Z,25.31
2023-08-16T07:30:36.086Z,25.43
2023-08-16T07:33:05.569Z,25.55
2023-08-16T07:35:34.031Z,25.70
2023-08-16T07:38:04.187Z,25.84
2023-08-16T07:40:32.694Z,26.00
2023-08-16T07:43:01.067Z,26.16
2023-08-16T07:45:29.495Z,26.31
2023-08-16T07:47:58.153Z,26.46
2023-08-16T07:50:26.630Z,26.61
2023-08-16T07:52:54.997Z,26.76
2023-08-16T07:55:29.695Z,26.94
2023-08-16T07:57:58.112Z,27.10
2023-08-16T08:00:26.598Z,27.22
2023-08-16T08:02:59.823Z,27.35
2023-08-16T08:05:31.136Z,27.48
2023-08-16T08:08:01.252Z,27.64
2023-08-16T08:10:31.040Z,27.79
2023-08-16T08:13:00.059Z,27.95
2023-08-16T08:15:28.869Z,28.13
2023-08-16T08:17:57.486Z,28.27
2023-08-16T08:20:26.034Z,28.40
2023-08-16T08:22:54.507Z,28.56
2023-08-16T08:25:22.907Z,28.76
2023-08-16T08:27:51.258Z,28.96
2023-08-16T08:30:20.075Z,29.18
2023-08-16T08:32:48.982Z,29.36
2023-08-16T08:35:17.530Z,29.54
2023-08-16T08:37:45.871Z,29.71
2023-08-16T08:40:15.256Z,29.81
2023-08-16T08:42:47.244Z,29.91
2023-08-16T08:45:15.966Z,29.99
2023-08-16T08:47:45.358Z,30.07
2023-08-16T08:50:13.892Z,30.15
2023-08-16T08:52:42.774Z,30.26
2023-08-16T08:55:11.453Z,30.39
2023-08-16T08:57:39.883Z,30.56
2023-08-16T09:00:15.078Z,30.70
2023-08-16T09:02:44.105Z,30.85
2023-08-16T09:05:13.999Z,31.05
2023-08-16T09:07:43.379Z,31.24
2023-08-16T09:10:13.052Z,31.40
2023-08-16T09:12:41.510Z,31.57
2023-08-16T09:15:11.010Z,31.73
2023-08-16T09:17:39.406Z,31.90
2023-08-16T09:20:09.594Z,32.03
2023-08-16T09:22:39.091Z,32.14
2023-08-16T09:25:11.557Z,32.26
2023-08-16T09:27:42.335Z,32.38
2023-08-16T09:30:15.239Z,32.54
2023-08-16T09:32:46.366Z,32.72
2023-08-16T09:35:14.885Z,32.82
2023-08-16T09:37:44.655Z,32.95
2023-08-16T09:40:13.423Z,33.09
2023-08-16T09:42:41.753Z,33.25
2023-08-16T09:45:10.798Z,33.40
2023-08-16T09:47:59.739Z,33.55
2023-08-16T09:50:29.335Z,33.68
2023-08-16T09:52:58.939Z,33.80
2023-08-16T09:55:30.090Z,33.89
2023-08-16T09:57:59.732Z,33.99
2023-08-16T10:00:28.908Z,34.09
2023-08-16T10:02:58.931Z,34.21
2023-08-16T10:05:46.185Z,34.28
2023-08-16T10:08:15.309Z,34.36
2023-08-16T10:10:44.133Z,34.49
2023-08-16T10:13:12.939Z,34.66
2023-08-16T10:15:44.540Z,34.81
2023-08-16T10:18:14.062Z,35.00
2023-08-16T10:20:43.447Z,35.19
2023-08-16T10:23:12.919Z,35.37
2023-08-16T10:25:45.999Z,35.55
2023-08-16T10:28:16.122Z,35.72
2023-08-16T10:31:13.279Z,35.86
2023-08-16T10:33:38.037Z,35.99
2023-08-16T10:36:07.641Z,36.07
2023-08-16T10:38:38.201Z,36.13
2023-08-16T10:41:14.576Z,36.18
2023-08-16T10:43:49.861Z,36.24
2023-08-16T10:46:30.451Z,36.37
2023-08-16T10:49:01.673Z,36.40
2023-08-16T10:51:30.921Z,36.28
2023-08-16T10:53:59.644Z,36.08
2023-08-16T10:56:38.739Z,35.79
2023-08-16T10:59:08.446Z,35.48
2023-08-16T11:01:44.273Z,35.21
2023-08-16T11:04:13.362Z,34.95
2023-08-16T11:06:48.182Z,34.75
2023-08-16T11:09:20.516Z,34.57
2023-08-16T11:11:49.583Z,34.41
2023-08-16T11:14:19.354Z,34.28
2023-08-16T11:16:47.926Z,34.15
2023-08-16T11:19:18.435Z,34.00
2023-08-16T11:21:48.124Z,33.87
2023-08-16T11:24:16.422Z,33.75
2023-08-16T11:26:45.074Z,33.66
2023-08-16T11:29:14.045Z,33.61
2023-08-16T11:31:42.500Z,33.52
2023-08-16T11:34:11.469Z,33.47
2023-08-16T11:36:40.110Z,33.43
2023-08-16T11:39:09.331Z,33.38
2023-08-16T11:41:37.984Z,33.34
2023-08-16T11:44:07.153Z,33.30
2023-08-16T11:46:47.890Z,33.26
2023-08-16T11:49:22.141Z,33.20
2023-08-16T11:51:51.502Z,33.20
2023-08-16T11:54:23.613Z,33.20
2023-08-16T11:56:52.222Z,33.19
2023-08-16T11:59:27.744Z,33.17
2023-08-16T12:01:56.210Z,33.15
2023-08-16T12:04:25.530Z,33.14
2023-08-16T12:06:54.340Z,33.16
2023-08-16T12:09:22.840Z,33.21
2023-08-16T12:11:52.831Z,33.32
2023-08-16T12:14:24.412Z,33.58
2023-08-16T12:16:52.775Z,33.81
2023-08-16T12:19:21.358Z,34.02
2023-08-16T12:21:50.881Z,34.20
2023-08-16T12:24:19.349Z,34.45
2023-08-16T12:26:48.022Z,34.74
2023-08-16T12:29:17.713Z,35.00
2023-08-16T12:31:46.060Z,35.27
2023-08-16T12:34:14.466Z,35.51
2023-08-16T12:36:42.731Z,35.76
2023-08-16T12:39:11.181Z,35.89
2023-08-16T12:41:39.620Z,35.88
2023-08-16T12:44:08.879Z,35.76
2023-08-16T12:46:37.335Z,35.68
2023-08-16T12:49:05.925Z,35.77
2023-08-16T12:51:34.284Z,35.91
2023-08-16T12:54:02.608Z,36.12
2023-08-16T12:56:31.103Z,36.27
2023-08-16T12:58:59.471Z,36.43
2023-08-16T13:04:00.513Z,36.95
2023-08-16T13:06:31.851Z,37.22
2023-08-16T13:09:04.223Z,37.49
2023-08-16T13:11:35.188Z,37.70
2023-08-16T13:14:08.688Z,37.89
2023-08-16T13:19:24.119Z,38.18
2023-08-16T13:21:54.822Z,38.20
2023-08-16T13:29:30.597Z,38.48
2023-08-16T13:32:06.838Z,38.39
2023-08-16T13:37:24.907Z,38.06
2023-08-16T13:45:17.004Z,37.35
2023-08-16T13:47:45.511Z,37.10
2023-08-16T13:50:13.902Z,36.92
2023-08-16T13:52:42.280Z,36.78
2023-08-16T13:55:12.262Z,36.73
2023-08-16T13:57:40.782Z,36.77
2023-08-16T14:00:10.864Z,36.85
2023-08-16T14:02:40.464Z,36.93
2023-08-16T14:05:09.794Z,36.98
2023-08-16T14:07:38.330Z,37.04
2023-08-16T14:10:08.451Z,37.12
2023-08-16T14:12:37.204Z,37.29
2023-08-16T14:15:07.254Z,37.50
2023-08-16T14:17:35.805Z,37.67
2023-08-16T14:20:08.064Z,37.84
2023-08-16T14:22:36.505Z,37.98
2023-08-16T14:25:05.906Z,38.11
2023-08-16T14:27:34.802Z,38.09
2023-08-16T14:30:03.931Z,38.02
2023-08-16T14:32:33.388Z,38.09
2023-08-16T14:35:01.730Z,38.18
2023-08-16T14:37:30.143Z,38.24
2023-08-16T14:39:58.733Z,38.18
2023-08-16T14:42:27.463Z,38.08
2023-08-16T14:44:56.075Z,37.98
2023-08-16T14:47:24.464Z,37.86
2023-08-16T14:49:53.096Z,37.72
2023-08-16T14:52:21.476Z,37.61
2023-08-16T14:54:50.376Z,37.53
2023-08-16T14:57:18.917Z,37.53
2023-08-16T14:59:47.324Z,37.63
2023-08-16T15:02:15.742Z,37.77
2023-08-16T15:04:44.159Z,37.93
2023-08-16T15:07:12.609Z,38.06
2023-08-16T15:09:41.013Z,38.09
2023-08-16T15:12:10.006Z,38.06
2023-08-16T15:14:38.439Z,38.02
2023-08-16T15:17:06.748Z,37.98
2023-08-16T15:19:40.797Z,37.96
2023-08-16T15:22:09.996Z,37.94
2023-08-16T15:24:38.527Z,37.91
2023-08-16T15:27:06.958Z,37.91
2023-08-16T15:29:35.378Z,37.91
2023-08-16T15:32:04.156Z,37.91
2023-08-16T15:34:32.597Z,38.00
2023-08-16T15:37:01.055Z,38.09
2023-08-16T15:39:29.423Z,38.18
2023-08-16T15:41:58.999Z,38.33
2023-08-16T15:44:27.282Z,38.47
2023-08-16T15:46:56.108Z,38.55
2023-08-16T15:49:25.296Z,38.55
2023-08-16T15:51:54.290Z,38.52
2023-08-16T15:54:22.672Z,38.46
2023-08-16T15:56:51.034Z,38.34
2023-08-16T15:59:19.446Z,38.20
2023-08-16T16:01:47.735Z,38.06
2023-08-16T16:04:16.702Z,37.98
2023-08-16T16:06:45.019Z,37.90
2023-08-16T16:09:13.403Z,37.80
2023-08-16T16:11:41.834Z,37.70
2023-08-16T16:14:10.501Z,37.58
2023-08-16T16:16:45.741Z,37.54
2023-08-16T16:19:14.091Z,37.48
2023-08-16T16:21:43.144Z,37.44
2023-08-16T16:24:11.635Z,37.44
2023-08-16T16:26:40.196Z,37.32
2023-08-16T16:29:09.996Z,37.16
2023-08-16T16:31:40.475Z,37.00
2023-08-16T16:34:08.965Z,36.79
2023-08-16T16:36:39.055Z,36.50
2023-08-16T16:39:08.708Z,36.17
2023-08-16T16:41:37.080Z,35.86
2023-08-16T16:44:06.722Z,35.56
2023-08-16T16:46:35.071Z,35.29
2023-08-16T16:49:03.575Z,35.02
2023-08-16T16:51:32.060Z,34.79
2023-08-16T16:54:00.364Z,34.60
2023-08-16T16:56:28.847Z,34.41
2023-08-16T16:58:57.250Z,34.22
2023-08-16T17:01:25.944Z,34.03
2023-08-16T17:03:54.434Z,33.84
2023-08-16T17:06:22.768Z,33.67
2023-08-16T17:08:51.197Z,33.52
2023-08-16T17:11:19.583Z,33.34
2023-08-16T17:13:48.129Z,33.16
2023-08-16T17:16:16.842Z,33.00
2023-08-16T17:18:45.381Z,32.85
2023-08-16T17:21:15.622Z,32.70
2023-08-16T17:23:45.060Z,32.55
2023-08-16T17:26:14.251Z,32.40
2023-08-16T17:28:42.608Z,32.25
2023-08-16T17:31:12.144Z,32.12
2023-08-16T17:33:40.781Z,31.99
2023-08-16T17:36:13.498Z,31.86
2023-08-16T17:38:43.770Z,31.73
2023-08-16T17:41:14.993Z,31.62
2023-08-16T17:43:44.161Z,31.50
2023-08-16T17:46:12.639Z,31.38
2023-08-16T17:48:41.197Z,31.27
2023-08-16T17:51:09.729Z,31.14
2023-08-16T17:53:38.196Z,31.03
2023-08-16T17:56:06.823Z,30.92
2023-08-16T17:58:35.963Z,30.79
2023-08-16T18:01:05.852Z,30.69
2023-08-16T18:03:34.641Z,30.59
2023-08-16T18:06:03.447Z,30.47
2023-08-16T18:08:31.908Z,30.36
2023-08-16T18:11:00.374Z,30.24
2023-08-16T18:13:29.041Z,30.13
2023-08-16T18:15:57.453Z,30.03
2023-08-16T18:18:26.582Z,29.94
2023-08-16T18:20:55.263Z,29.84
2023-08-16T18:23:23.973Z,29.78
2023-08-16T18:25:52.844Z,29.73
2023-08-16T18:28:21.210Z,29.69
2023-08-16T18:30:49.803Z,29.64
2023-08-16T18:33:18.880Z,29.59
2023-08-16T18:35:47.654Z,29.53
2023-08-16T18:38:16.228Z,29.48
2023-08-16T18:40:44.811Z,29.42
2023-08-16T18:43:13.268Z,29.36
2023-08-16T18:45:46.433Z,29.30
2023-08-16T18:48:15.283Z,29.23
2023-08-16T18:50:44.625Z,29.18
2023-08-16T18:53:13.639Z,29.13
2023-08-16T18:55:43.052Z,29.08
2023-08-16T18:58:11.449Z,29.04
2023-08-16T19:00:42.357Z,28.99
2023-08-16T19:03:10.882Z,28.94
2023-08-16T19:05:44.068Z,28.90
2023-08-16T19:08:13.725Z,28.86
2023-08-16T19:10:42.952Z,28.82
2023-08-16T19:13:11.504Z,28.78
2023-08-16T19:15:39.962Z,28.75
2023-08-16T19:18:09.182Z,28.71
2023-08-16T19:20:39.263Z,28.66
2023-08-16T19:23:07.646Z,28.61
2023-08-16T19:25:36.044Z,28.57
2023-08-16T19:28:05.482Z,28.52
2023-08-16T19:30:36.282Z,28.48
2023-08-16T19:33:05.587Z,28.43
2023-08-16T19:35:33.930Z,28.39
2023-08-16T19:38:02.331Z,28.36
2023-08-16T19:40:31.285Z,28.33
2023-08-16T19:42:59.705Z,28.29
2023-08-16T19:45:28.052Z,28.26
2023-08-16T19:47:56.669Z,28.23
2023-08-16T19:50:25.529Z,28.19
2023-08-16T19:52:55.060Z,28.16
2023-08-16T19:55:23.817Z,28.13
2023-08-16T19:57:52.722Z,28.10
2023-08-16T20:00:22.026Z,28.07
2023-08-16T20:02:50.533Z,28.04
2023-08-16T20:05:19.525Z,28.01
2023-08-16T20:07:47.844Z,27.98
2023-08-16T20:10:17.773Z,27.95
2023-08-16T20:12:46.827Z,27.92
2023-08-16T20:15:15.616Z,27.88
2023-08-16T20:17:44.079Z,27.84
2023-08-16T20:20:13.843Z,27.81
2023-08-16T20:22:43.449Z,27.79
2023-08-16T20:25:12.072Z,27.76
2023-08-16T20:27:40.824Z,27.73
2023-08-16T20:30:11.157Z,27.70
2023-08-16T20:32:39.541Z,27.66
2023-08-16T20:35:08.788Z,27.64
2023-08-16T20:37:37.232Z,27.62
2023-08-16T20:40:08.659Z,27.59
2023-08-16T20:42:38.784Z,27.54
2023-08-16T20:45:10.032Z,27.51
2023-08-16T20:47:39.728Z,27.47
2023-08-16T20:50:11.313Z,27.44
2023-08-16T20:52:42.306Z,27.41
2023-08-16T20:55:11.768Z,27.38
2023-08-16T20:57:40.239Z,27.36
2023-08-16T21:00:12.221Z,27.33
2023-08-16T21:02:40.665Z,27.30
2023-08-16T21:05:09.643Z,27.24
2023-08-16T21:07:38.069Z,27.19
2023-08-16T21:10:08.181Z,27.14
2023-08-16T21:12:36.684Z,27.12
2023-08-16T21:15:06.656Z,27.09
2023-08-16T21:17:35.074Z,27.07
2023-08-16T21:20:03.937Z,27.06
2023-08-16T21:22:32.317Z,27.05
2023-08-16T21:25:00.726Z,27.03
2023-08-16T21:27:29.053Z,27.01
2023-08-16T21:29:57.382Z,26.98
2023-08-16T21:32:25.749Z,26.95
2023-08-16T21:34:54.064Z,26.91
2023-08-16T21:37:22.489Z,26.88
2023-08-16T21:39:52.075Z,26.85
2023-08-16T21:42:20.530Z,26.83
2023-08-16T21:44:48.832Z,26.80
2023-08-16T21:47:17.265Z,26.78
2023-08-16T21:49:45.648Z,26.78
2023-08-16T21:52:13.982Z,26.76
2023-08-16T21:54:42.488Z,26.73
2023-08-16T21:57:10.842Z,26.68
2023-08-16T21:59:39.177Z,26.61
2023-08-16T22:02:07.680Z,26.55
2023-08-16T22:04:36.517Z,26.50
2023-08-16T22:07:05.290Z,26.46
2023-08-16T22:09:34.433Z,26.41
2023-08-16T22:12:03.001Z,26.38
2023-08-16T22:14:31.429Z,26.33
2023-08-16T22:16:59.893Z,26.30
2023-08-16T22:19:28.235Z,26.26
2023-08-16T22:21:56.539Z,26.22
2023-08-16T22:24:24.862Z,26.18
2023-08-16T22:26:53.267Z,26.13
2023-08-16T22:29:22.465Z,26.09
2023-08-16T22:31:52.075Z,26.05
2023-08-16T22:34:21.887Z,26.03
2023-08-16T22:36:50.381Z,26.01
2023-08-16T22:39:18.687Z,25.99
2023-08-16T22:41:47.901Z,25.97
2023-08-16T22:44:16.312Z,25.95
2023-08-16T22:46:44.784Z,25.93
2023-08-16T22:49:13.325Z,25.91
2023-08-16T22:51:41.658Z,25.90
2023-08-16T22:54:10.441Z,25.89
2023-08-16T22:56:39.317Z,25.89
2023-08-16T22:59:07.671Z,25.87
2023-08-16T23:01:36.096Z,25.83
2023-08-16T23:04:05.702Z,25.80
2023-08-16T23:06:35.000Z,25.77
2023-08-16T23:09:04.055Z,25.75
2023-08-16T23:11:32.698Z,25.73
2023-08-16T23:14:01.302Z,25.71
2023-08-16T23:16:29.882Z,25.68
2023-08-16T23:19:00.214Z,25.66
2023-08-16T23:21:28.721Z,25.65
2023-08-16T23:23:57.210Z,25.63
2023-08-16T23:26:25.819Z,25.61
2023-08-16T23:28:54.188Z,25.55
2023-08-16T23:31:22.516Z,25.47
2023-08-16T23:33:51.284Z,25.41
2023-08-16T23:36:19.593Z,25.38
2023-08-16T23:38:48.032Z,25.33
2023-08-16T23:41:16.592Z,25.28
2023-08-16T23:43:45.016Z,25.25
2023-08-16T23:46:13.509Z,25.22
2023-08-16T23:48:43.243Z,25.20
2023-08-16T23:51:11.516Z,25.18
2023-08-16T23:53:40.032Z,25.15
2023-08-16T23:56:08.647Z,25.14
2023-08-16T23:58:37.110Z,25.13
